Time;durP1;ratioP1;P1;durP2;ratioP2;P2;SDS_P1;SDS_P2;PMS_P1;PMS_P2;Temp;Humidity;BMP_temperature;BMP_pressure;BME280_temperature;BME280_humidity;BME280_pressure;Samples;Min_cycle;Max_cycle;Signal;HPM_P1;HPM_P2
2023/01/16 00:01:28;;;;;;;0.77;0.77;;;4.30;99.90;;;;;;5243382;28;20466;-49
2023/01/16 00:03:59;;;;;;;1.33;0.90;;;4.30;99.90;;;;;;5246288;28;20434;-48
2023/01/16 00:06:30;;;;;;;2.40;1.07;;;4.30;99.90;;;;;;5241089;28;20502;-49
2023/01/16 00:09:02;;;;;;;2.40;1.03;;;4.40;99.90;;;;;;5216482;28;20282;-49
2023/01/16 00:11:32;;;;;;;1.03;0.93;;;4.50;99.90;;;;;;5236614;28;20207;-48
2023/01/16 00:14:03;;;;;;;4.10;1.43;;;4.60;99.90;;;;;;5225633;28;20479;-49
2023/01/16 00:16:34;;;;;;;2.73;1.00;;;4.70;99.90;;;;;;5242365;28;20176;-47
2023/01/16 00:19:05;;;;;;;2.23;1.10;;;4.80;99.90;;;;;;5210583;28;20212;-52
2023/01/16 00:21:36;;;;;;;0.80;0.80;;;4.80;99.90;;;;;;5243408;28;20185;-48
2023/01/16 00:24:07;;;;;;;0.90;0.90;;;4.90;99.90;;;;;;5226566;28;20451;-48
2023/01/16 00:26:38;;;;;;;3.60;1.00;;;5.00;99.90;;;;;;5227141;28;20196;-49
2023/01/16 00:29:09;;;;;;;4.40;0.93;;;5.00;99.90;;;;;;5229853;28;20484;-48
2023/01/16 00:31:39;;;;;;;4.43;0.87;;;5.00;99.90;;;;;;5223592;28;20190;-48
2023/01/16 00:34:10;;;;;;;1.03;0.80;;;5.10;99.90;;;;;;5248240;28;20192;-50
2023/01/16 00:36:41;;;;;;;1.20;0.90;;;5.10;99.90;;;;;;5241268;28;20194;-49
2023/01/16 00:39:11;;;;;;;3.97;1.43;;;5.20;99.90;;;;;;5239404;28;20263;-47
2023/01/16 00:41:42;;;;;;;2.77;0.87;;;5.10;99.90;;;;;;5243004;28;20217;-50
2023/01/16 00:44:13;;;;;;;1.43;0.60;;;5.20;99.90;;;;;;5241136;28;20195;-48
2023/01/16 00:46:44;;;;;;;2.17;0.80;;;5.20;99.90;;;;;;5241647;28;20198;-48
2023/01/16 00:49:15;;;;;;;0.93;0.93;;;5.10;99.90;;;;;;5246376;28;20467;-47
2023/01/16 00:51:46;;;;;;;0.97;0.87;;;5.10;99.90;;;;;;5241918;28;20431;-49
2023/01/16 00:54:16;;;;;;;2.83;1.37;;;5.20;99.90;;;;;;5244927;28;20643;-48
2023/01/16 00:56:47;;;;;;;1.00;0.90;;;5.20;99.90;;;;;;5231829;28;20279;-51
2023/01/16 00:59:18;;;;;;;0.47;0.47;;;5.20;99.90;;;;;;5230763;28;20210;-48
2023/01/16 01:01:49;;;;;;;1.17;0.50;;;5.10;99.90;;;;;;5250528;28;20193;-48
2023/01/16 01:04:20;;;;;;;2.00;0.53;;;5.20;99.90;;;;;;5250642;28;20654;-49
2023/01/16 01:06:50;;;;;;;4.53;0.80;;;5.10;99.90;;;;;;5248425;28;20219;-49
2023/01/16 01:09:21;;;;;;;1.33;0.50;;;5.20;99.90;;;;;;5241074;28;20237;-48
2023/01/16 01:11:52;;;;;;;4.43;0.60;;;5.20;99.90;;;;;;5231207;28;20185;-48
2023/01/16 01:14:23;;;;;;;1.63;0.70;;;5.30;99.90;;;;;;5231731;28;20182;-49
2023/01/16 01:16:54;;;;;;;0.40;0.40;;;5.20;99.90;;;;;;5230805;28;20182;-48
2023/01/16 01:19:24;;;;;;;1.83;0.70;;;5.20;99.90;;;;;;5231788;28;21030;-50
2023/01/16 01:21:55;;;;;;;1.07;0.70;;;5.20;99.90;;;;;;5246517;28;20706;-48
2023/01/16 01:24:26;;;;;;;2.97;1.87;;;5.10;99.90;;;;;;5242869;28;20303;-50
2023/01/16 01:26:57;;;;;;;0.90;0.90;;;5.10;99.90;;;;;;5232946;28;20704;-48
2023/01/16 01:29:27;;;;;;;0.40;0.40;;;4.90;99.90;;;;;;5231328;28;20198;-48
2023/01/16 01:31:58;;;;;;;2.43;0.70;;;4.80;99.90;;;;;;5241923;28;20647;-48
2023/01/16 01:34:32;;;;;;;0.80;0.80;;;4.70;99.90;;;;;;5247526;28;20756;-50
2023/01/16 01:37:05;;;;;;;1.57;1.00;;;4.60;99.90;;;;;;5243689;28;20188;-47
2023/01/16 01:39:36;;;;;;;2.03;0.73;;;4.40;99.90;;;;;;5248356;28;20977;-47
2023/01/16 01:45:11;;;;;;;0.60;0.60;;;4.30;99.90;;;;;;5239638;28;20774;-49
2023/01/16 01:47:45;;;;;;;3.07;0.77;;;4.20;99.90;;;;;;5226536;28;20515;-48
2023/01/16 01:50:28;;;;;;;1.73;0.83;;;4.10;99.90;;;;;;5228565;28;20438;-47
2023/01/16 01:53:03;;;;;;;1.80;0.83;;;4.00;99.90;;;;;;5237478;28;20900;-47
2023/01/16 01:55:34;;;;;;;6.20;0.73;;;3.90;99.90;;;;;;5230461;28;20889;-50
2023/01/16 01:58:05;;;;;;;2.20;0.90;;;4.00;99.90;;;;;;5217006;28;20494;-48
2023/01/16 02:00:36;;;;;;;0.90;0.70;;;4.00;99.90;;;;;;5217705;28;20201;-51
2023/01/16 02:03:13;;;;;;;2.20;0.77;;;4.10;99.90;;;;;;5249770;28;20850;-49
2023/01/16 02:05:49;;;;;;;7.03;0.60;;;4.20;99.90;;;;;;5222222;28;20491;-49
2023/01/16 02:08:24;;;;;;;1.27;0.63;;;4.20;99.90;;;;;;5229475;28;20460;-48
2023/01/16 02:10:58;;;;;;;2.73;1.00;;;4.40;99.90;;;;;;5226005;28;20488;-49
2023/01/16 02:13:29;;;;;;;2.60;0.90;;;4.50;99.90;;;;;;5247072;28;21077;-49
2023/01/16 02:21:53;;;;;;;3.13;1.00;;;4.60;99.90;;;;;;5240272;28;20442;-48
2023/01/16 02:24:36;;;;;;;1.10;0.53;;;4.70;99.90;;;;;;5245078;28;20429;-48
2023/01/16 02:27:21;;;;;;;2.63;0.80;;;4.60;99.90;;;;;;5221066;28;20542;-48
2023/01/16 02:30:04;;;;;;;2.30;0.90;;;4.60;99.90;;;;;;5235430;28;20915;-48
2023/01/16 02:32:57;;;;;;;0.60;0.60;;;4.70;99.90;;;;;;5240663;28;20457;-48
2023/01/16 02:35:43;;;;;;;2.10;0.63;;;4.70;99.90;;;;;;5244298;28;20500;-52
2023/01/16 02:38:30;;;;;;;2.70;0.87;;;4.70;99.90;;;;;;5241781;28;20462;-48
2023/01/16 02:41:26;;;;;;;1.70;1.07;;;4.80;99.90;;;;;;5244704;28;20438;-48
2023/01/16 02:44:24;;;;;;;4.30;1.10;;;4.80;99.90;;;;;;5244324;28;20514;-48
2023/01/16 02:47:36;;;;;;;1.70;0.70;;;4.70;99.90;;;;;;5238793;28;20991;-47
2023/01/16 02:50:26;;;;;;;1.57;0.73;;;4.70;99.90;;;;;;5194259;28;20546;-48
2023/01/16 02:53:18;;;;;;;1.07;0.90;;;4.70;99.90;;;;;;5248762;28;20430;-49
2023/01/16 02:56:12;;;;;;;0.60;0.60;;;4.70;99.90;;;;;;5223804;28;20423;-47
2023/01/16 02:58:46;;;;;;;1.10;0.70;;;4.70;99.90;;;;;;5246850;28;20541;-49
2023/01/16 03:01:18;;;;;;;1.57;0.90;;;4.70;99.90;;;;;;5249326;28;20435;-48
2023/01/16 03:03:55;;;;;;;7.20;1.73;;;4.80;99.90;;;;;;5229272;28;20439;-49
2023/01/16 03:06:50;;;;;;;0.93;0.87;;;4.80;99.90;;;;;;5234518;28;20471;-55
2023/01/16 03:09:29;;;;;;;4.90;3.40;;;5.00;99.90;;;;;;5220731;28;20479;-49
2023/01/16 03:12:28;;;;;;;8.70;7.20;;;5.00;99.90;;;;;;5239795;28;20448;-49
2023/01/16 03:15:23;;;;;;;25.13;12.43;;;4.80;99.90;;;;;;5247203;28;20434;-48
2023/01/16 03:18:09;;;;;;;31.43;18.13;;;4.90;99.90;;;;;;5235820;28;20973;-52
2023/01/16 03:21:01;;;;;;;33.90;19.00;;;4.90;99.90;;;;;;5245157;28;20428;-50
2023/01/16 03:23:54;;;;;;;36.97;16.13;;;4.70;99.90;;;;;;5232681;28;20742;-49
2023/01/16 03:26:27;;;;;;;19.90;13.67;;;4.50;99.90;;;;;;5247377;28;20969;-51
2023/01/16 03:29:06;;;;;;;16.27;11.10;;;4.30;99.90;;;;;;5241485;28;20477;-49
2023/01/16 03:31:43;;;;;;;18.93;11.03;;;4.40;99.90;;;;;;5242425;28;20432;-49
2023/01/16 03:34:36;;;;;;;21.33;10.97;;;4.10;99.90;;;;;;5224868;28;20529;-49
2023/01/16 03:37:13;;;;;;;26.10;10.87;;;4.20;99.90;;;;;;5216021;28;20442;-49
2023/01/16 03:39:47;;;;;;;14.60;9.00;;;4.10;99.90;;;;;;5244685;28;20800;-48
2023/01/16 03:42:52;;;;;;;19.30;9.73;;;4.40;99.90;;;;;;5249139;28;20462;-48
2023/01/16 03:45:32;;;;;;;11.30;6.00;;;4.30;99.90;;;;;;5230005;28;20455;-49
2023/01/16 03:48:21;;;;;;;11.53;5.73;;;4.30;99.90;;;;;;5226591;28;20570;-50
2023/01/16 03:51:00;;;;;;;6.27;3.40;;;4.20;99.90;;;;;;5227154;28;20481;-49
2023/01/16 03:53:38;;;;;;;2.90;2.70;;;4.20;99.90;;;;;;5243544;28;20438;-49
2023/01/16 03:56:20;;;;;;;5.37;2.73;;;4.10;99.90;;;;;;5225217;28;20966;-49
2023/01/16 03:58:53;;;;;;;4.43;2.10;;;4.10;99.90;;;;;;5235993;28;20952;-49
2023/01/16 04:01:43;;;;;;;3.60;1.80;;;4.10;99.90;;;;;;5243593;28;20918;-49
2023/01/16 04:04:46;;;;;;;1.13;1.03;;;4.00;99.90;;;;;;5239091;28;20444;-49
2023/01/16 04:07:24;;;;;;;1.23;0.90;;;4.00;99.90;;;;;;5234915;28;20461;-48
2023/01/16 04:10:00;;;;;;;1.13;0.80;;;4.10;99.90;;;;;;5238612;28;20461;-50
2023/01/16 04:12:40;;;;;;;1.80;1.33;;;4.10;99.90;;;;;;5236873;28;20964;-49
2023/01/16 04:15:11;;;;;;;0.90;0.83;;;4.30;99.90;;;;;;5241115;28;20481;-49
2023/01/16 04:17:42;;;;;;;2.27;0.90;;;4.30;99.90;;;;;;5244353;28;20964;-50
2023/01/16 04:20:13;;;;;;;2.80;0.67;;;4.10;99.90;;;;;;5242267;28;20719;-50
2023/01/16 04:22:48;;;;;;;0.90;0.60;;;4.10;99.90;;;;;;5243474;28;20459;-48
2023/01/16 04:25:20;;;;;;;4.97;1.53;;;4.10;99.90;;;;;;5235458;28;20440;-50
2023/01/16 04:27:51;;;;;;;2.60;0.90;;;4.00;99.90;;;;;;5228382;28;20548;-50
2023/01/16 04:30:21;;;;;;;1.80;1.20;;;4.20;99.90;;;;;;5222410;28;20865;-49
2023/01/16 04:32:52;;;;;;;2.93;0.80;;;4.00;99.90;;;;;;5224216;28;20183;-49
2023/01/16 04:35:23;;;;;;;1.57;0.50;;;3.90;99.90;;;;;;5225941;28;20511;-49
2023/01/16 04:37:54;;;;;;;2.87;0.87;;;3.80;99.90;;;;;;5249438;28;20183;-50
2023/01/16 04:40:24;;;;;;;5.60;1.07;;;3.70;99.90;;;;;;5226502;28;20526;-49
2023/01/16 04:42:55;;;;;;;1.53;0.93;;;3.70;99.90;;;;;;5236146;28;20183;-49
2023/01/16 04:45:26;;;;;;;1.00;0.70;;;3.60;99.90;;;;;;5243929;28;20432;-49
2023/01/16 04:47:57;;;;;;;1.87;0.83;;;3.50;99.90;;;;;;5227808;28;20204;-49
2023/01/16 04:50:28;;;;;;;5.50;0.90;;;3.50;99.90;;;;;;5244596;28;20182;-49
2023/01/16 04:52:58;;;;;;;3.13;0.90;;;3.70;99.90;;;;;;5223233;28;20432;-49
2023/01/16 04:55:29;;;;;;;1.80;0.80;;;3.60;99.90;;;;;;5227873;28;20208;-50
2023/01/16 04:57:59;;;;;;;0.70;0.70;;;3.70;99.90;;;;;;5233557;28;20191;-50
2023/01/16 05:00:30;;;;;;;1.70;0.87;;;3.50;99.90;;;;;;5221015;28;20178;-48
2023/01/16 05:03:01;;;;;;;6.13;1.87;;;3.40;99.90;;;;;;5224103;28;21025;-49
2023/01/16 05:05:31;;;;;;;2.40;2.10;;;3.30;99.90;;;;;;5229309;28;20186;-49
2023/01/16 05:08:17;;;;;;;6.43;3.07;;;3.30;99.90;;;;;;5233273;28;20667;-50
2023/01/16 05:10:48;;;;;;;9.50;4.50;;;3.40;99.90;;;;;;5244797;28;20189;-48
2023/01/16 05:13:19;;;;;;;3.93;3.30;;;3.50;99.90;;;;;;5240950;28;20428;-49
2023/01/16 05:15:50;;;;;;;23.97;12.60;;;3.50;99.90;;;;;;5221482;28;20739;-49
2023/01/16 05:18:23;;;;;;;41.67;21.17;;;3.60;99.90;;;;;;5233787;28;20473;-49
2023/01/16 05:20:53;;;;;;;17.83;9.23;;;3.50;99.90;;;;;;5237653;28;20261;-49
2023/01/16 05:23:24;;;;;;;32.27;16.00;;;3.50;99.90;;;;;;5238183;28;21072;-49
2023/01/16 05:25:54;;;;;;;31.63;14.00;;;3.40;99.90;;;;;;5244669;28;20174;-50
2023/01/16 05:28:25;;;;;;;37.20;16.87;;;3.60;99.90;;;;;;5245478;28;20223;-50
2023/01/16 05:30:56;;;;;;;33.97;14.33;;;3.70;99.90;;;;;;5221806;28;20533;-49
2023/01/16 05:33:29;;;;;;;3.60;1.93;;;3.70;99.90;;;;;;5223916;28;20178;-49
2023/01/16 05:36:00;;;;;;;11.83;8.20;;;3.70;99.90;;;;;;5239433;28;20177;-48
2023/01/16 05:38:31;;;;;;;9.97;5.93;;;3.80;99.90;;;;;;5220610;28;20496;-50
2023/01/16 05:41:02;;;;;;;6.03;3.03;;;3.70;99.90;;;;;;5235830;28;20193;-48
2023/01/16 05:43:32;;;;;;;2.20;2.10;;;3.90;99.90;;;;;;5237661;28;22971;-49
2023/01/16 05:46:03;;;;;;;3.37;1.60;;;3.80;99.90;;;;;;5212660;28;20608;-50
2023/01/16 05:48:35;;;;;;;3.53;1.27;;;3.90;99.90;;;;;;5246281;28;20659;-50
2023/01/16 05:51:06;;;;;;;2.77;1.40;;;3.80;99.90;;;;;;5239517;28;20469;-50
2023/01/16 05:53:37;;;;;;;8.37;1.10;;;4.00;99.90;;;;;;5226461;28;20530;-50
2023/01/16 05:56:10;;;;;;;3.37;1.07;;;3.90;99.90;;;;;;5223329;28;20222;-48
2023/01/16 05:58:41;;;;;;;3.37;0.90;;;3.90;99.90;;;;;;5237005;28;20947;-49
2023/01/16 06:01:11;;;;;;;1.47;1.07;;;3.80;99.90;;;;;;5241704;28;20519;-49
2023/01/16 06:03:42;;;;;;;1.33;1.23;;;3.80;99.90;;;;;;5243780;28;20641;-49
2023/01/16 06:06:12;;;;;;;1.23;1.13;;;3.80;99.90;;;;;;5247965;28;20549;-50
2023/01/16 06:08:43;;;;;;;2.70;1.33;;;3.80;99.90;;;;;;5220934;28;20199;-50
2023/01/16 06:11:14;;;;;;;11.43;1.27;;;3.90;99.90;;;;;;5212637;28;20189;-50
2023/01/16 06:13:46;;;;;;;8.20;1.53;;;3.90;99.90;;;;;;5230563;28;20201;-49
2023/01/16 06:16:17;;;;;;;2.20;1.00;;;3.80;99.90;;;;;;5243225;28;20262;-50
2023/01/16 06:18:47;;;;;;;2.00;1.43;;;3.80;99.90;;;;;;5217406;28;20616;-50
2023/01/16 06:21:18;;;;;;;1.60;1.13;;;3.80;99.90;;;;;;5236227;28;20182;-50
2023/01/16 06:23:49;;;;;;;4.03;1.07;;;3.80;99.90;;;;;;5244110;28;20267;-50
2023/01/16 06:26:19;;;;;;;1.20;1.03;;;3.80;99.90;;;;;;5223382;28;20560;-50
2023/01/16 06:28:50;;;;;;;3.30;1.20;;;3.80;99.90;;;;;;5239813;28;20270;-50
2023/01/16 06:31:21;;;;;;;1.43;1.43;;;3.80;99.90;;;;;;5238875;28;20179;-50
2023/01/16 06:33:51;;;;;;;1.90;1.20;;;3.80;99.90;;;;;;5229847;28;20184;-50
2023/01/16 06:36:22;;;;;;;4.90;1.40;;;3.80;99.90;;;;;;5246681;28;20183;-49
2023/01/16 06:38:53;;;;;;;4.60;1.53;;;3.70;99.90;;;;;;5228011;28;20210;-50
2023/01/16 06:41:24;;;;;;;15.73;1.70;;;3.80;99.90;;;;;;5231397;28;20190;-49
2023/01/16 06:43:54;;;;;;;7.23;1.93;;;3.70;99.90;;;;;;5244844;28;20437;-49
2023/01/16 06:46:25;;;;;;;2.70;1.73;;;3.80;99.90;;;;;;5241904;28;20196;-49
2023/01/16 06:48:56;;;;;;;3.23;1.77;;;3.60;99.90;;;;;;5230478;28;20680;-50
2023/01/16 06:51:27;;;;;;;1.37;1.27;;;3.50;99.90;;;;;;5221027;28;20233;-50
2023/01/16 06:53:57;;;;;;;6.90;2.20;;;3.60;99.90;;;;;;5230462;28;20189;-50
2023/01/16 06:56:29;;;;;;;6.10;1.77;;;3.50;99.90;;;;;;5242058;28;20628;-49
2023/01/16 06:59:00;;;;;;;5.33;2.00;;;3.60;99.90;;;;;;5220825;28;20206;-50
2023/01/16 07:01:31;;;;;;;1.70;1.30;;;3.60;99.90;;;;;;5215593;28;20456;-50
2023/01/16 07:04:01;;;;;;;6.30;2.00;;;3.70;99.90;;;;;;5241711;28;20278;-50
2023/01/16 07:06:33;;;;;;;4.60;1.93;;;3.60;99.90;;;;;;5226910;28;20610;-50
2023/01/16 07:09:03;;;;;;;3.93;2.47;;;3.60;99.90;;;;;;5228279;28;20204;-50
2023/01/16 07:11:34;;;;;;;2.17;1.97;;;3.70;99.90;;;;;;5241369;28;20944;-50
2023/01/16 07:22:37;;;;;;;1.40;1.30;;;3.80;99.90;;;;;;5241808;28;20579;-50
2023/01/16 07:25:24;;;;;;;1.50;1.40;;;3.80;99.90;;;;;;5219910;28;20441;-49
2023/01/16 07:27:55;;;;;;;2.27;2.07;;;3.70;99.90;;;;;;5223098;28;20469;-49
2023/01/16 07:30:26;;;;;;;3.10;1.83;;;3.80;99.90;;;;;;5235574;28;20444;-50
2023/01/16 07:32:56;;;;;;;5.47;2.00;;;3.90;99.90;;;;;;5247007;28;20270;-49
2023/01/16 07:35:27;;;;;;;2.57;2.37;;;3.90;99.90;;;;;;5235826;28;20228;-48
2023/01/16 07:37:58;;;;;;;3.60;1.40;;;3.90;99.90;;;;;;5227778;28;20273;-49
2023/01/16 07:40:29;;;;;;;1.70;1.03;;;3.80;99.90;;;;;;5225635;28;20193;-50
2023/01/16 07:43:00;;;;;;;2.30;1.43;;;3.90;99.90;;;;;;5239198;28;20255;-49
2023/01/16 07:45:30;;;;;;;2.00;1.90;;;3.80;99.90;;;;;;5236498;28;20264;-49
2023/01/16 07:48:01;;;;;;;1.73;1.40;;;3.70;99.90;;;;;;5234127;28;20302;-49
2023/01/16 07:50:32;;;;;;;2.00;1.90;;;3.60;99.90;;;;;;5242382;28;20183;-53
2023/01/16 07:53:05;;;;;;;2.10;1.90;;;3.70;99.90;;;;;;5226591;28;20273;-49
2023/01/16 07:55:36;;;;;;;5.90;1.67;;;3.60;99.90;;;;;;5247585;28;20559;-48
2023/01/16 07:58:07;;;;;;;2.57;1.53;;;3.60;99.90;;;;;;5244869;28;20456;-50
2023/01/16 08:00:38;;;;;;;6.30;1.30;;;3.80;99.90;;;;;;5240650;28;20437;-50
2023/01/16 08:03:13;;;;;;;7.93;1.77;;;3.80;99.90;;;;;;5233751;28;20182;-50
2023/01/16 08:05:44;;;;;;;4.50;1.70;;;3.80;99.90;;;;;;5235970;28;20182;-49
2023/01/16 08:08:15;;;;;;;4.80;1.90;;;3.90;99.90;;;;;;5241168;28;20525;-49
2023/01/16 08:10:46;;;;;;;2.93;2.50;;;3.90;99.90;;;;;;5226759;28;20331;-48
2023/01/16 08:13:17;;;;;;;5.83;2.87;;;3.90;99.90;;;;;;5243160;28;20549;-49
2023/01/16 08:15:48;;;;;;;5.73;1.70;;;3.90;99.90;;;;;;5231630;28;20719;-49
2023/01/16 08:18:21;;;;;;;8.47;2.07;;;3.80;99.90;;;;;;5241349;28;20293;-49
2023/01/16 08:20:52;;;;;;;1.93;1.20;;;3.90;99.90;;;;;;5245703;28;20425;-48
2023/01/16 08:23:22;;;;;;;6.43;2.73;;;3.80;99.90;;;;;;5249244;28;20446;-47
2023/01/16 08:25:53;;;;;;;1.57;1.53;;;4.00;99.90;;;;;;5242132;28;20190;-48
2023/01/16 08:28:24;;;;;;;5.50;1.50;;;4.00;99.90;;;;;;5210302;28;20256;-49
2023/01/16 08:30:55;;;;;;;10.83;4.80;;;4.10;99.90;;;;;;5234585;28;20172;-48
2023/01/16 08:33:25;;;;;;;1.43;1.43;;;4.40;99.90;;;;;;5241649;28;20234;-49
2023/01/16 08:35:59;;;;;;;2.83;1.40;;;4.30;99.90;;;;;;5245073;28;20184;-48
2023/01/16 08:38:30;;;;;;;1.80;1.70;;;4.40;99.90;;;;;;5241969;28;20213;-49
2023/01/16 08:41:01;;;;;;;2.60;1.80;;;4.50;99.90;;;;;;5224577;28;20858;-49
2023/01/16 08:52:03;;;;;;;8.00;1.40;;;4.40;99.90;;;;;;5241885;28;20441;-53
2023/01/16 08:54:34;;;;;;;5.77;1.23;;;4.50;99.90;;;;;;5243150;28;20440;-49
2023/01/16 08:57:05;;;;;;;2.63;1.10;;;4.40;99.90;;;;;;5218290;28;20194;-52
2023/01/16 08:59:35;;;;;;;3.40;1.90;;;4.40;99.90;;;;;;5223652;28;20386;-48
2023/01/16 09:02:09;;;;;;;1.77;1.53;;;4.50;99.90;;;;;;5236825;28;20536;-50
2023/01/16 09:04:40;;;;;;;1.67;1.47;;;4.50;99.90;;;;;;5218663;28;20288;-48
2023/01/16 09:07:10;;;;;;;6.70;1.63;;;4.50;99.90;;;;;;5238802;28;20552;-49
2023/01/16 09:09:41;;;;;;;5.40;1.60;;;4.40;99.90;;;;;;5220188;28;20463;-49
2023/01/16 09:15:03;;;;;;;5.37;2.30;;;4.40;99.90;;;;;;5237502;28;20439;-49
2023/01/16 09:17:34;;;;;;;2.97;1.77;;;4.40;99.90;;;;;;5226965;28;20517;-50
2023/01/16 09:20:05;;;;;;;4.80;1.67;;;4.30;99.90;;;;;;5245303;28;20507;-51
2023/01/16 09:22:36;;;;;;;2.90;1.50;;;4.40;99.90;;;;;;5238351;28;20558;-49
2023/01/16 09:25:07;;;;;;;9.63;1.37;;;4.40;99.90;;;;;;5245012;28;20491;-49
2023/01/16 09:27:38;;;;;;;2.53;1.50;;;4.60;99.90;;;;;;5226406;28;20213;-48
2023/01/16 09:30:09;;;;;;;1.80;1.47;;;4.60;99.90;;;;;;5223785;28;20467;-47
2023/01/16 09:32:40;;;;;;;5.70;1.50;;;4.50;99.90;;;;;;5209611;28;20188;-48
2023/01/16 09:35:11;;;;;;;5.80;1.50;;;4.40;99.90;;;;;;5247149;28;20494;-50
2023/01/16 09:37:45;;;;;;;3.60;2.00;;;4.50;99.90;;;;;;5247014;28;20243;-48
2023/01/16 09:40:19;;;;;;;2.87;1.60;;;4.60;99.90;;;;;;5246895;28;20839;-49
2023/01/16 09:46:07;;;;;;;3.23;1.70;;;4.70;99.90;;;;;;5242316;28;20469;-48
2023/01/16 09:48:50;;;;;;;2.40;1.40;;;4.80;99.90;;;;;;5246281;28;20472;-51
2023/01/16 09:51:34;;;;;;;1.53;1.30;;;4.80;99.90;;;;;;5229864;28;21527;-50
2023/01/16 10:00:05;;;;;;;2.50;1.53;;;4.90;99.90;;;;;;5245946;28;20485;-50
2023/01/16 10:02:36;;;;;;;2.30;1.43;;;4.90;99.90;;;;;;5230171;28;20447;-51
2023/01/16 10:05:09;;;;;;;3.33;2.13;;;5.00;99.90;;;;;;5233259;28;20485;-50
2023/01/16 10:07:52;;;;;;;8.70;1.77;;;5.00;99.90;;;;;;5242456;28;20232;-50
2023/01/16 10:10:50;;;;;;;3.80;1.50;;;5.10;99.90;;;;;;5248253;28;20447;-50
2023/01/16 10:13:36;;;;;;;3.17;1.50;;;5.10;99.90;;;;;;5217801;28;20477;-51
2023/01/16 10:16:33;;;;;;;1.87;1.43;;;5.10;99.90;;;;;;5239167;28;20433;-49
2023/01/16 10:19:07;;;;;;;3.43;1.57;;;5.30;99.90;;;;;;5236718;28;20553;-50
2023/01/16 10:22:05;;;;;;;2.00;1.17;;;5.20;99.90;;;;;;5240419;28;20790;-51
2023/01/16 10:24:54;;;;;;;4.73;1.20;;;5.40;99.90;;;;;;5236395;28;20439;-50
2023/01/16 10:27:43;;;;;;;5.20;1.53;;;5.50;99.90;;;;;;5218569;28;20479;-50
2023/01/16 10:30:23;;;;;;;1.77;1.43;;;5.50;99.90;;;;;;5238305;28;20491;-52
2023/01/16 10:33:26;;;;;;;2.70;1.20;;;5.60;99.90;;;;;;5223381;28;20468;-49
2023/01/16 10:36:00;;;;;;;1.77;1.17;;;5.60;99.90;;;;;;5208695;28;20435;-51
2023/01/16 10:38:55;;;;;;;5.43;1.10;;;5.80;99.90;;;;;;5223053;28;20462;-50
2023/01/16 10:50:23;;;;;;;2.00;1.13;;;6.00;99.90;;;;;;5243392;28;20782;-49
2023/01/16 10:52:54;;;;;;;3.20;1.00;;;6.30;99.90;;;;;;5245888;28;20432;-51
2023/01/16 10:55:25;;;;;;;1.30;1.20;;;6.30;99.90;;;;;;5240637;28;20963;-50
2023/01/16 10:57:58;;;;;;;2.53;1.20;;;6.30;99.90;;;;;;5240594;28;20182;-49
2023/01/16 11:00:37;;;;;;;3.60;1.50;;;6.50;99.90;;;;;;5204977;28;20179;-49
2023/01/16 11:03:18;;;;;;;2.10;1.30;;;6.60;99.90;;;;;;5227453;28;20562;-55
2023/01/16 11:05:49;;;;;;;3.70;1.43;;;6.50;99.90;;;;;;5241423;28;20471;-48
2023/01/16 11:08:21;;;;;;;3.17;1.23;;;6.40;99.90;;;;;;5218167;28;20551;-50
2023/01/16 11:10:52;;;;;;;3.00;2.20;;;6.50;99.90;;;;;;5227674;28;20182;-53
2023/01/16 11:19:18;;;;;;;1.30;1.20;;;6.60;99.90;;;;;;5243052;28;20497;-51
2023/01/16 11:22:11;;;;;;;3.00;1.60;;;6.50;99.90;;;;;;5238107;28;20837;-53
2023/01/16 11:24:45;;;;;;;5.60;2.00;;;6.70;99.90;;;;;;5241572;28;20633;-51
2023/01/16 11:27:21;;;;;;;2.43;1.10;;;6.80;99.90;;;;;;5240016;28;20456;-51
2023/01/16 11:29:54;;;;;;;2.30;1.63;;;6.70;99.90;;;;;;5228520;28;20868;-50
2023/01/16 11:32:28;;;;;;;9.30;2.50;;;6.80;99.90;;;;;;5227451;28;20511;-49
2023/01/16 11:34:59;;;;;;;3.30;2.03;;;7.00;99.90;;;;;;5243363;28;20839;-48
2023/01/16 11:37:30;;;;;;;2.50;1.20;;;7.10;99.90;;;;;;5228866;28;20470;-49
2023/01/16 11:40:03;;;;;;;6.53;1.40;;;7.00;99.90;;;;;;5241436;28;20592;-50
2023/01/16 11:48:23;;;;;;;2.00;1.83;;;7.10;99.90;;;;;;5239159;28;20460;-52
2023/01/16 11:50:58;;;;;;;5.50;1.13;;;7.10;99.90;;;;;;5223239;28;20428;-50
2023/01/16 11:53:31;;;;;;;15.17;1.63;;;7.10;99.90;;;;;;5226929;28;20446;-50
2023/01/16 11:56:29;;;;;;;1.20;1.00;;;7.00;99.90;;;;;;5241347;28;21324;-51
2023/01/16 11:59:34;;;;;;;4.07;1.87;;;7.10;99.90;;;;;;5218748;28;21160;-55
2023/01/16 12:02:24;;;;;;;3.67;2.60;;;7.10;99.90;;;;;;5232791;28;20433;-49
2023/01/16 12:08:08;;;;;;;3.20;1.17;;;6.90;99.90;;;;;;5231621;28;20531;-49
2023/01/16 12:10:48;;;;;;;4.43;2.00;;;7.20;99.90;;;;;;5238954;28;20435;-50
2023/01/16 12:16:28;;;;;;;4.23;1.10;;;7.10;99.90;;;;;;5242117;28;20460;-49
2023/01/16 12:19:08;;;;;;;2.10;0.97;;;7.00;99.90;;;;;;5243285;28;20476;-48
2023/01/16 12:21:51;;;;;;;1.30;1.30;;;7.00;99.90;;;;;;5243293;28;20433;-49
2023/01/16 12:24:43;;;;;;;3.20;1.30;;;6.90;99.90;;;;;;5240514;28;20448;-50
2023/01/16 12:27:48;;;;;;;2.70;1.73;;;6.80;99.90;;;;;;5245554;28;20824;-49
2023/01/16 12:30:25;;;;;;;2.67;1.73;;;6.90;99.90;;;;;;5244781;28;20515;-48
2023/01/16 12:33:13;;;;;;;1.47;1.17;;;7.00;99.90;;;;;;5246653;28;20459;-49
2023/01/16 12:36:37;;;;;;;;;;;;;;;;;;;;;
2023/01/16 12:43:29;;;;;;;1.17;0.80;;;7.10;99.90;;;;;;5220569;28;20412;-49
2023/01/16 12:47:03;;;;;;;1.50;1.40;;;7.00;99.90;;;;;;5218324;28;20438;-51
2023/01/16 12:50:13;;;;;;;2.50;1.20;;;6.90;99.90;;;;;;5151356;28;20801;-49
2023/01/16 12:53:05;;;;;;;1.77;1.27;;;7.00;99.90;;;;;;5195788;28;20441;-50
2023/01/16 12:55:53;;;;;;;3.03;1.50;;;7.10;99.90;;;;;;5212397;28;20584;-50
2023/01/16 12:58:39;;;;;;;1.53;1.40;;;7.00;99.90;;;;;;5217087;28;20544;-50
2023/01/16 13:01:16;;;;;;;1.87;1.27;;;7.20;99.90;;;;;;5219505;28;20668;-49
2023/01/16 13:03:57;;;;;;;1.70;1.40;;;7.10;99.90;;;;;;5204750;28;21005;-50
2023/01/16 13:06:58;;;;;;;6.90;1.27;;;7.10;99.70;;;;;;5208043;28;20436;-50
2023/01/16 13:09:36;;;;;;;3.63;1.37;;;7.20;99.40;;;;;;5217456;28;20461;-50
2023/01/16 13:15:26;;;;;;;7.00;1.60;;;7.10;99.90;;;;;;5218612;28;20468;-51
2023/01/16 13:18:10;;;;;;;2.33;1.20;;;7.10;99.20;;;;;;5216245;28;20524;-51
2023/01/16 13:20:43;;;;;;;1.33;1.10;;;7.10;98.80;;;;;;5217137;28;20429;-49
2023/01/16 13:23:20;;;;;;;1.20;1.20;;;7.10;99.00;;;;;;5215825;28;20833;-51
2023/01/16 13:26:02;;;;;;;2.50;1.37;;;7.00;98.90;;;;;;5218107;28;20442;-48
2023/01/16 13:28:42;;;;;;;2.87;1.53;;;7.00;98.50;;;;;;5222568;28;20457;-50
2023/01/16 13:31:23;;;;;;;3.27;2.00;;;6.90;98.70;;;;;;5201978;28;20434;-47
2023/01/16 13:34:20;;;;;;;2.50;1.00;;;6.90;98.90;;;;;;5220399;28;20583;-49
2023/01/16 13:37:04;;;;;;;3.27;1.23;;;7.00;98.70;;;;;;5222580;28;20446;-47
2023/01/16 13:39:38;;;;;;;0.77;0.77;;;6.90;98.40;;;;;;5218306;28;20970;-51
2023/01/16 13:42:12;;;;;;;1.43;1.13;;;6.90;97.70;;;;;;5219881;28;20437;-48
2023/01/16 13:47:43;;;;;;;1.50;0.87;;;6.90;97.30;;;;;;5190220;28;20461;-47
2023/01/16 13:50:26;;;;;;;0.83;0.83;;;7.00;97.10;;;;;;5222891;28;20465;-49
2023/01/16 13:53:08;;;;;;;1.43;1.00;;;6.90;96.80;;;;;;5224142;28;20434;-50
2023/01/16 13:55:43;;;;;;;2.33;1.53;;;6.90;97.10;;;;;;5220993;28;20457;-48
2023/01/16 13:58:18;;;;;;;0.97;0.87;;;7.00;96.30;;;;;;5219575;28;20884;-51
2023/01/16 14:01:03;;;;;;;3.50;1.00;;;6.90;96.60;;;;;;5217371;28;20436;-49
2023/01/16 14:03:35;;;;;;;1.13;1.03;;;7.00;96.10;;;;;;5225225;28;20428;-50
2023/01/16 14:06:12;;;;;;;1.70;0.93;;;6.90;96.00;;;;;;5221129;28;20505;-49
2023/01/16 14:09:17;;;;;;;5.40;1.10;;;6.80;96.60;;;;;;5222535;28;20472;-49
2023/01/16 14:12:20;;;;;;;1.27;0.93;;;6.80;97.00;;;;;;5218376;28;20463;-50
2023/01/16 14:18:20;;;;;;;1.53;1.43;;;6.80;98.00;;;;;;5219326;28;20504;-51
2023/01/16 14:21:04;;;;;;;2.20;1.00;;;6.70;98.70;;;;;;5214092;28;20532;-50
2023/01/16 14:26:48;;;;;;;2.57;1.50;;;6.60;99.90;;;;;;5215301;28;20544;-48
2023/01/16 14:29:27;;;;;;;1.43;0.87;;;6.60;99.90;;;;;;5214897;28;20484;-51
2023/01/16 14:32:13;;;;;;;1.90;0.83;;;6.50;99.90;;;;;;5219464;28;20441;-51
2023/01/16 14:34:50;;;;;;;0.80;0.80;;;6.50;99.90;;;;;;5217677;28;20433;-50
2023/01/16 14:37:31;;;;;;;3.17;1.13;;;6.40;99.90;;;;;;5219693;28;20433;-49
2023/01/16 14:40:11;;;;;;;2.23;1.10;;;6.40;99.90;;;;;;5223984;28;20477;-49
2023/01/16 14:56:33;;;;;;;2.63;1.03;;;6.20;99.90;;;;;;5181370;28;20809;-49
2023/01/16 14:59:14;;;;;;;1.03;1.03;;;6.30;99.90;;;;;;5219147;28;20526;-52
2023/01/16 15:05:04;;;;;;;1.90;0.90;;;6.10;99.90;;;;;;5226182;28;20435;-49
2023/01/16 15:07:44;;;;;;;1.10;1.00;;;6.10;99.90;;;;;;5226811;28;20468;-48
2023/01/16 15:10:16;;;;;;;4.33;1.20;;;6.00;99.90;;;;;;5224294;28;20558;-50
2023/01/16 15:12:47;;;;;;;1.10;1.10;;;6.00;99.90;;;;;;5220985;28;20960;-49
2023/01/16 15:15:29;;;;;;;1.23;1.13;;;6.00;99.90;;;;;;5226758;28;20499;-49
2023/01/16 15:23:38;;;;;;;10.30;1.63;;;5.80;99.90;;;;;;5221861;28;20439;-50
2023/01/16 15:26:23;;;;;;;1.20;1.20;;;5.70;99.90;;;;;;5221034;28;20440;-50
2023/01/16 15:29:02;;;;;;;3.07;1.30;;;5.80;99.90;;;;;;5225141;28;20490;-50
2023/01/16 15:31:37;;;;;;;0.90;0.90;;;5.80;99.90;;;;;;5219025;28;20443;-50